sensor_id;sensor_type;location;lat;lon;timestamp;P1;durP1;ratioP1;P2;durP2;ratioP2
24547;SDS011;12713;51.624;4.924;2024-02-26T00:00:11;7.28;;;3.80;;
24547;SDS011;12713;51.624;4.924;2024-02-26T00:02:37;4.38;;;2.88;;
24547;SDS011;12713;51.624;4.924;2024-02-26T00:05:05;5.72;;;2.88;;
24547;SDS011;12713;51.624;4.924;2024-02-26T00:07:31;7.50;;;3.25;;
24547;SDS011;12713;51.624;4.924;2024-02-26T00:09:57;7.07;;;3.70;;
24547;SDS011;12713;51.624;4.924;2024-02-26T00:12:23;7.90;;;3.25;;
24547;SDS011;12713;51.624;4.924;2024-02-26T00:14:49;5.38;;;3.30;;
24547;SDS011;12713;51.624;4.924;2024-02-26T00:17:17;5.85;;;3.60;;
24547;SDS011;12713;51.624;4.924;2024-02-26T00:19:43;7.07;;;3.50;;
24547;SDS011;12713;51.624;4.924;2024-02-26T00:22:09;8.50;;;3.80;;
24547;SDS011;12713;51.624;4.924;2024-02-26T00:24:35;7.75;;;4.13;;
24547;SDS011;12713;51.624;4.924;2024-02-26T00:27:01;8.18;;;4.00;;
24547;SDS011;12713;51.624;4.924;2024-02-26T00:29:28;7.43;;;3.38;;
24547;SDS011;12713;51.624;4.924;2024-02-26T00:31:54;6.50;;;3.40;;
24547;SDS011;12713;51.624;4.924;2024-02-26T00:34:20;6.70;;;3.50;;
24547;SDS011;12713;51.624;4.924;2024-02-26T00:36:46;8.15;;;3.45;;
24547;SDS011;12713;51.624;4.924;2024-02-26T00:39:12;5.40;;;3.50;;
24547;SDS011;12713;51.624;4.924;2024-02-26T00:41:39;5.70;;;3.67;;
24547;SDS011;12713;51.624;4.924;2024-02-26T00:44:05;5.20;;;3.78;;
24547;SDS011;12713;51.624;4.924;2024-02-26T00:46:32;4.60;;;3.45;;
24547;SDS011;12713;51.624;4.924;2024-02-26T00:48:58;5.35;;;3.20;;
24547;SDS011;12713;51.624;4.924;2024-02-26T00:51:24;5.90;;;3.40;;
24547;SDS011;12713;51.624;4.924;2024-02-26T00:53:50;6.05;;;3.17;;
24547;SDS011;12713;51.624;4.924;2024-02-26T00:56:16;4.53;;;3.30;;
24547;SDS011;12713;51.624;4.924;2024-02-26T00:58:42;7.63;;;3.42;;
24547;SDS011;12713;51.624;4.924;2024-02-26T01:01:08;6.60;;;3.38;;
24547;SDS011;12713;51.624;4.924;2024-02-26T01:03:34;4.85;;;3.38;;
24547;SDS011;12713;51.624;4.924;2024-02-26T01:06:00;4.55;;;3.17;;
24547;SDS011;12713;51.624;4.924;2024-02-26T01:08:26;6.70;;;3.33;;
24547;SDS011;12713;51.624;4.924;2024-02-26T01:10:52;5.43;;;3.10;;
24547;SDS011;12713;51.624;4.924;2024-02-26T01:13:18;4.25;;;2.72;;
24547;SDS011;12713;51.624;4.924;2024-02-26T01:15:44;3.63;;;2.35;;
24547;SDS011;12713;51.624;4.924;2024-02-26T01:18:10;5.00;;;2.85;;
24547;SDS011;12713;51.624;4.924;2024-02-26T01:20:36;4.85;;;3.00;;
24547;SDS011;12713;51.624;4.924;2024-02-26T01:23:02;5.40;;;2.95;;
24547;SDS011;12713;51.624;4.924;2024-02-26T01:25:28;3.92;;;2.80;;
24547;SDS011;12713;51.624;4.924;2024-02-26T01:27:54;4.70;;;2.55;;
24547;SDS011;12713;51.624;4.924;2024-02-26T01:30:20;6.10;;;2.80;;
24547;SDS011;12713;51.624;4.924;2024-02-26T01:32:46;4.03;;;2.90;;
24547;SDS011;12713;51.624;4.924;2024-02-26T01:35:12;4.43;;;2.70;;
24547;SDS011;12713;51.624;4.924;2024-02-26T01:37:38;3.58;;;2.97;;
24547;SDS011;12713;51.624;4.924;2024-02-26T01:40:05;3.53;;;2.70;;
24547;SDS011;12713;51.624;4.924;2024-02-26T01:42:32;4.10;;;2.88;;
24547;SDS011;12713;51.624;4.924;2024-02-26T01:44:58;5.20;;;3.13;;
24547;SDS011;12713;51.624;4.924;2024-02-26T01:47:24;2.72;;;2.50;;
24547;SDS011;12713;51.624;4.924;2024-02-26T01:49:51;4.05;;;3.15;;
24547;SDS011;12713;51.624;4.924;2024-02-26T01:52:17;5.43;;;3.40;;
24547;SDS011;12713;51.624;4.924;2024-02-26T01:54:44;6.57;;;2.90;;
24547;SDS011;12713;51.624;4.924;2024-02-26T01:57:11;6.85;;;3.30;;
24547;SDS011;12713;51.624;4.924;2024-02-26T01:59:38;6.50;;;2.83;;
24547;SDS011;12713;51.624;4.924;2024-02-26T02:02:06;3.92;;;3.00;;
24547;SDS011;12713;51.624;4.924;2024-02-26T02:04:34;3.88;;;3.10;;
24547;SDS011;12713;51.624;4.924;2024-02-26T02:07:00;4.63;;;2.80;;
24547;SDS011;12713;51.624;4.924;2024-02-26T02:09:27;4.70;;;3.25;;
24547;SDS011;12713;51.624;4.924;2024-02-26T02:11:53;6.05;;;3.00;;
24547;SDS011;12713;51.624;4.924;2024-02-26T02:14:19;4.88;;;3.28;;
24547;SDS011;12713;51.624;4.924;2024-02-26T02:16:47;4.55;;;3.67;;
24547;SDS011;12713;51.624;4.924;2024-02-26T02:19:13;5.93;;;3.28;;
24547;SDS011;12713;51.624;4.924;2024-02-26T02:21:39;5.90;;;3.58;;
24547;SDS011;12713;51.624;4.924;2024-02-26T02:24:05;4.38;;;3.80;;
24547;SDS011;12713;51.624;4.924;2024-02-26T02:26:31;5.45;;;4.05;;
24547;SDS011;12713;51.624;4.924;2024-02-26T02:28:57;7.32;;;3.85;;
24547;SDS011;12713;51.624;4.924;2024-02-26T02:31:24;6.22;;;4.20;;
24547;SDS011;12713;51.624;4.924;2024-02-26T02:33:50;6.72;;;4.60;;
24547;SDS011;12713;51.624;4.924;2024-02-26T02:36:16;5.80;;;4.45;;
24547;SDS011;12713;51.624;4.924;2024-02-26T02:38:49;8.20;;;5.07;;
24547;SDS011;12713;51.624;4.924;2024-02-26T02:41:15;5.18;;;4.65;;
24547;SDS011;12713;51.624;4.924;2024-02-26T02:43:41;6.80;;;4.60;;
24547;SDS011;12713;51.624;4.924;2024-02-26T02:46:07;6.13;;;5.45;;
24547;SDS011;12713;51.624;4.924;2024-02-26T02:48:33;6.75;;;5.55;;
24547;SDS011;12713;51.624;4.924;2024-02-26T02:50:59;7.07;;;5.32;;
24547;SDS011;12713;51.624;4.924;2024-02-26T02:53:25;8.80;;;5.75;;
24547;SDS011;12713;51.624;4.924;2024-02-26T02:55:51;8.82;;;5.50;;
24547;SDS011;12713;51.624;4.924;2024-02-26T02:58:17;8.60;;;6.03;;
24547;SDS011;12713;51.624;4.924;2024-02-26T03:00:43;8.05;;;5.97;;
24547;SDS011;12713;51.624;4.924;2024-02-26T03:03:09;6.93;;;6.20;;
24547;SDS011;12713;51.624;4.924;2024-02-26T03:05:35;7.35;;;5.55;;
24547;SDS011;12713;51.624;4.924;2024-02-26T03:08:01;10.30;;;6.20;;
24547;SDS011;12713;51.624;4.924;2024-02-26T03:10:27;9.90;;;6.65;;
24547;SDS011;12713;51.624;4.924;2024-02-26T03:12:53;10.35;;;5.97;;
24547;SDS011;12713;51.624;4.924;2024-02-26T03:15:21;8.55;;;6.53;;
24547;SDS011;12713;51.624;4.924;2024-02-26T03:17:47;8.43;;;5.88;;
24547;SDS011;12713;51.624;4.924;2024-02-26T03:20:13;9.00;;;5.90;;
24547;SDS011;12713;51.624;4.924;2024-02-26T03:22:39;7.63;;;6.15;;
24547;SDS011;12713;51.624;4.924;2024-02-26T03:25:06;7.57;;;5.50;;
24547;SDS011;12713;51.624;4.924;2024-02-26T03:27:32;7.95;;;6.63;;
24547;SDS011;12713;51.624;4.924;2024-02-26T03:29:58;11.05;;;6.45;;
24547;SDS011;12713;51.624;4.924;2024-02-26T03:32:24;8.88;;;6.82;;
24547;SDS011;12713;51.624;4.924;2024-02-26T03:34:50;8.25;;;6.13;;
24547;SDS011;12713;51.624;4.924;2024-02-26T03:37:19;7.47;;;5.95;;
24547;SDS011;12713;51.624;4.924;2024-02-26T03:39:45;7.35;;;5.28;;
24547;SDS011;12713;51.624;4.924;2024-02-26T03:42:11;7.25;;;5.80;;
24547;SDS011;12713;51.624;4.924;2024-02-26T03:44:37;12.20;;;6.25;;
24547;SDS011;12713;51.624;4.924;2024-02-26T03:47:03;10.18;;;6.95;;
24547;SDS011;12713;51.624;4.924;2024-02-26T03:49:29;9.05;;;6.57;;
24547;SDS011;12713;51.624;4.924;2024-02-26T03:51:55;10.15;;;6.93;;
24547;SDS011;12713;51.624;4.924;2024-02-26T03:54:21;8.73;;;6.55;;
24547;SDS011;12713;51.624;4.924;2024-02-26T03:56:47;7.63;;;6.80;;
24547;SDS011;12713;51.624;4.924;2024-02-26T03:59:13;9.82;;;6.70;;
24547;SDS011;12713;51.624;4.924;2024-02-26T04:01:44;10.98;;;6.75;;
24547;SDS011;12713;51.624;4.924;2024-02-26T04:04:11;10.77;;;7.03;;
24547;SDS011;12713;51.624;4.924;2024-02-26T04:06:37;9.82;;;7.60;;
24547;SDS011;12713;51.624;4.924;2024-02-26T04:09:03;11.10;;;7.38;;
24547;SDS011;12713;51.624;4.924;2024-02-26T04:11:29;9.68;;;7.55;;
24547;SDS011;12713;51.624;4.924;2024-02-26T04:13:55;9.02;;;7.10;;
24547;SDS011;12713;51.624;4.924;2024-02-26T04:16:21;7.80;;;6.70;;
24547;SDS011;12713;51.624;4.924;2024-02-26T04:18:47;11.43;;;7.45;;
24547;SDS011;12713;51.624;4.924;2024-02-26T04:21:14;8.77;;;7.43;;
24547;SDS011;12713;51.624;4.924;2024-02-26T04:23:40;7.85;;;6.82;;
24547;SDS011;12713;51.624;4.924;2024-02-26T04:26:06;10.07;;;6.88;;
24547;SDS011;12713;51.624;4.924;2024-02-26T04:28:32;10.40;;;6.97;;
24547;SDS011;12713;51.624;4.924;2024-02-26T04:30:58;8.70;;;7.47;;
24547;SDS011;12713;51.624;4.924;2024-02-26T04:33:24;11.93;;;7.47;;
24547;SDS011;12713;51.624;4.924;2024-02-26T04:35:50;8.05;;;6.50;;
24547;SDS011;12713;51.624;4.924;2024-02-26T04:38:16;8.13;;;6.70;;
24547;SDS011;12713;51.624;4.924;2024-02-26T04:40:42;8.88;;;6.35;;
24547;SDS011;12713;51.624;4.924;2024-02-26T04:43:08;7.97;;;6.00;;
24547;SDS011;12713;51.624;4.924;2024-02-26T04:45:34;9.80;;;6.30;;
24547;SDS011;12713;51.624;4.924;2024-02-26T04:48:00;7.70;;;6.32;;
24547;SDS011;12713;51.624;4.924;2024-02-26T04:50:26;10.18;;;6.57;;
24547;SDS011;12713;51.624;4.924;2024-02-26T04:52:52;7.47;;;6.40;;
24547;SDS011;12713;51.624;4.924;2024-02-26T04:55:18;8.35;;;6.28;;
24547;SDS011;12713;51.624;4.924;2024-02-26T04:57:44;7.45;;;6.47;;
24547;SDS011;12713;51.624;4.924;2024-02-26T05:00:10;8.55;;;6.38;;
24547;SDS011;12713;51.624;4.924;2024-02-26T05:02:37;7.00;;;5.38;;
24547;SDS011;12713;51.624;4.924;2024-02-26T05:05:06;7.45;;;5.13;;
24547;SDS011;12713;51.624;4.924;2024-02-26T05:07:33;10.15;;;5.43;;
24547;SDS011;12713;51.624;4.924;2024-02-26T05:09:59;7.03;;;5.70;;
24547;SDS011;12713;51.624;4.924;2024-02-26T05:12:25;8.27;;;5.32;;
24547;SDS011;12713;51.624;4.924;2024-02-26T05:14:51;7.75;;;5.40;;
24547;SDS011;12713;51.624;4.924;2024-02-26T05:17:17;7.93;;;5.00;;
24547;SDS011;12713;51.624;4.924;2024-02-26T05:19:43;7.55;;;5.72;;
24547;SDS011;12713;51.624;4.924;2024-02-26T05:22:09;6.00;;;5.07;;
24547;SDS011;12713;51.624;4.924;2024-02-26T05:24:37;7.00;;;5.70;;
24547;SDS011;12713;51.624;4.924;2024-02-26T05:27:03;7.20;;;5.53;;
24547;SDS011;12713;51.624;4.924;2024-02-26T05:29:30;7.25;;;6.28;;
24547;SDS011;12713;51.624;4.924;2024-02-26T05:31:56;9.60;;;6.07;;
24547;SDS011;12713;51.624;4.924;2024-02-26T05:34:22;6.95;;;6.13;;
24547;SDS011;12713;51.624;4.924;2024-02-26T05:36:48;7.80;;;6.07;;
24547;SDS011;12713;51.624;4.924;2024-02-26T05:39:14;10.82;;;6.88;;
24547;SDS011;12713;51.624;4.924;2024-02-26T05:41:41;10.35;;;6.75;;
24547;SDS011;12713;51.624;4.924;2024-02-26T05:44:08;8.18;;;6.30;;
24547;SDS011;12713;51.624;4.924;2024-02-26T05:46:35;12.40;;;6.93;;
24547;SDS011;12713;51.624;4.924;2024-02-26T05:49:01;10.48;;;7.22;;
24547;SDS011;12713;51.624;4.924;2024-02-26T05:51:28;9.63;;;6.97;;
24547;SDS011;12713;51.624;4.924;2024-02-26T05:53:54;13.30;;;7.70;;
24547;SDS011;12713;51.624;4.924;2024-02-26T05:56:23;13.65;;;7.50;;
24547;SDS011;12713;51.624;4.924;2024-02-26T05:58:49;10.65;;;7.70;;
24547;SDS011;12713;51.624;4.924;2024-02-26T06:01:16;10.77;;;7.05;;
24547;SDS011;12713;51.624;4.924;2024-02-26T06:03:42;11.18;;;7.15;;
24547;SDS011;12713;51.624;4.924;2024-02-26T06:06:08;10.90;;;7.38;;
24547;SDS011;12713;51.624;4.924;2024-02-26T06:08:34;8.68;;;6.72;;
24547;SDS011;12713;51.624;4.924;2024-02-26T06:11:04;11.27;;;7.50;;
24547;SDS011;12713;51.624;4.924;2024-02-26T06:13:30;9.95;;;7.68;;
24547;SDS011;12713;51.624;4.924;2024-02-26T06:15:56;9.05;;;6.97;;
24547;SDS011;12713;51.624;4.924;2024-02-26T06:18:22;11.13;;;7.22;;
24547;SDS011;12713;51.624;4.924;2024-02-26T06:20:48;13.73;;;7.78;;
24547;SDS011;12713;51.624;4.924;2024-02-26T06:23:15;9.65;;;7.60;;
24547;SDS011;12713;51.624;4.924;2024-02-26T06:25:42;11.43;;;8.10;;
24547;SDS011;12713;51.624;4.924;2024-02-26T06:28:08;11.50;;;8.73;;
24547;SDS011;12713;51.624;4.924;2024-02-26T06:30:34;10.23;;;7.78;;
24547;SDS011;12713;51.624;4.924;2024-02-26T06:33:01;10.18;;;7.80;;
24547;SDS011;12713;51.624;4.924;2024-02-26T06:35:27;11.32;;;8.32;;
24547;SDS011;12713;51.624;4.924;2024-02-26T06:37:54;10.63;;;7.78;;
24547;SDS011;12713;51.624;4.924;2024-02-26T06:40:20;11.77;;;8.63;;
24547;SDS011;12713;51.624;4.924;2024-02-26T06:42:46;10.63;;;8.02;;
24547;SDS011;12713;51.624;4.924;2024-02-26T06:45:12;12.18;;;7.88;;
24547;SDS011;12713;51.624;4.924;2024-02-26T06:47:38;10.75;;;7.43;;
24547;SDS011;12713;51.624;4.924;2024-02-26T06:50:04;11.02;;;7.50;;
24547;SDS011;12713;51.624;4.924;2024-02-26T06:52:30;11.18;;;8.13;;
24547;SDS011;12713;51.624;4.924;2024-02-26T06:54:56;11.02;;;7.85;;
24547;SDS011;12713;51.624;4.924;2024-02-26T06:57:22;11.43;;;7.78;;
24547;SDS011;12713;51.624;4.924;2024-02-26T06:59:49;8.82;;;6.70;;
24547;SDS011;12713;51.624;4.924;2024-02-26T07:02:15;9.10;;;7.60;;
24547;SDS011;12713;51.624;4.924;2024-02-26T07:04:41;11.00;;;7.90;;
24547;SDS011;12713;51.624;4.924;2024-02-26T07:07:08;11.18;;;7.78;;
24547;SDS011;12713;51.624;4.924;2024-02-26T07:09:34;11.75;;;8.05;;
24547;SDS011;12713;51.624;4.924;2024-02-26T07:12:00;12.57;;;8.27;;
24547;SDS011;12713;51.624;4.924;2024-02-26T07:14:26;12.77;;;8.10;;
24547;SDS011;12713;51.624;4.924;2024-02-26T07:16:52;13.82;;;7.93;;
24547;SDS011;12713;51.624;4.924;2024-02-26T07:19:18;14.35;;;8.52;;
24547;SDS011;12713;51.624;4.924;2024-02-26T07:21:44;11.55;;;8.13;;
24547;SDS011;12713;51.624;4.924;2024-02-26T07:24:10;13.00;;;7.93;;
24547;SDS011;12713;51.624;4.924;2024-02-26T07:26:36;12.38;;;8.82;;
24547;SDS011;12713;51.624;4.924;2024-02-26T07:29:02;10.10;;;7.85;;
24547;SDS011;12713;51.624;4.924;2024-02-26T07:31:29;11.32;;;7.80;;
24547;SDS011;12713;51.624;4.924;2024-02-26T07:33:55;10.90;;;7.88;;
24547;SDS011;12713;51.624;4.924;2024-02-26T07:36:21;10.30;;;8.30;;
24547;SDS011;12713;51.624;4.924;2024-02-26T07:38:47;11.05;;;8.23;;
24547;SDS011;12713;51.624;4.924;2024-02-26T07:41:13;10.88;;;8.13;;
24547;SDS011;12713;51.624;4.924;2024-02-26T07:43:39;10.90;;;8.27;;
24547;SDS011;12713;51.624;4.924;2024-02-26T07:46:06;11.93;;;8.52;;
24547;SDS011;12713;51.624;4.924;2024-02-26T07:48:32;10.25;;;8.10;;
24547;SDS011;12713;51.624;4.924;2024-02-26T07:50:58;13.57;;;8.77;;
24547;SDS011;12713;51.624;4.924;2024-02-26T07:53:25;12.65;;;8.82;;
24547;SDS011;12713;51.624;4.924;2024-02-26T07:55:51;12.50;;;9.20;;
24547;SDS011;12713;51.624;4.924;2024-02-26T07:58:17;12.80;;;9.73;;
24547;SDS011;12713;51.624;4.924;2024-02-26T08:00:43;13.15;;;9.50;;
24547;SDS011;12713;51.624;4.924;2024-02-26T08:03:11;13.68;;;9.23;;
24547;SDS011;12713;51.624;4.924;2024-02-26T08:05:38;13.80;;;9.30;;
24547;SDS011;12713;51.624;4.924;2024-02-26T08:08:05;16.90;;;10.20;;
24547;SDS011;12713;51.624;4.924;2024-02-26T08:10:32;13.38;;;9.55;;
24547;SDS011;12713;51.624;4.924;2024-02-26T08:12:58;13.27;;;10.07;;
24547;SDS011;12713;51.624;4.924;2024-02-26T08:15:30;12.38;;;9.20;;
24547;SDS011;12713;51.624;4.924;2024-02-26T08:17:57;14.80;;;10.43;;
24547;SDS011;12713;51.624;4.924;2024-02-26T08:20:23;14.57;;;10.48;;
24547;SDS011;12713;51.624;4.924;2024-02-26T08:22:49;14.02;;;10.30;;
24547;SDS011;12713;51.624;4.924;2024-02-26T08:25:15;18.05;;;11.48;;
24547;SDS011;12713;51.624;4.924;2024-02-26T08:27:41;14.00;;;10.32;;
24547;SDS011;12713;51.624;4.924;2024-02-26T08:30:08;20.45;;;11.52;;
24547;SDS011;12713;51.624;4.924;2024-02-26T08:32:34;17.33;;;11.77;;
24547;SDS011;12713;51.624;4.924;2024-02-26T08:35:00;18.48;;;12.07;;
24547;SDS011;12713;51.624;4.924;2024-02-26T08:37:26;16.38;;;11.57;;
24547;SDS011;12713;51.624;4.924;2024-02-26T08:39:52;21.00;;;13.73;;
24547;SDS011;12713;51.624;4.924;2024-02-26T08:42:18;17.60;;;12.98;;
24547;SDS011;12713;51.624;4.924;2024-02-26T08:44:44;20.70;;;13.65;;
24547;SDS011;12713;51.624;4.924;2024-02-26T08:47:10;18.33;;;12.95;;
24547;SDS011;12713;51.624;4.924;2024-02-26T08:49:36;21.65;;;14.32;;
24547;SDS011;12713;51.624;4.924;2024-02-26T08:52:03;20.63;;;14.27;;
24547;SDS011;12713;51.624;4.924;2024-02-26T08:54:29;23.48;;;14.60;;
24547;SDS011;12713;51.624;4.924;2024-02-26T08:56:56;24.58;;;15.43;;
24547;SDS011;12713;51.624;4.924;2024-02-26T08:59:22;22.23;;;15.23;;
24547;SDS011;12713;51.624;4.924;2024-02-26T09:01:48;25.63;;;15.57;;
24547;SDS011;12713;51.624;4.924;2024-02-26T09:04:14;26.92;;;15.68;;
24547;SDS011;12713;51.624;4.924;2024-02-26T09:06:40;24.80;;;15.13;;
24547;SDS011;12713;51.624;4.924;2024-02-26T09:09:06;25.65;;;15.82;;
24547;SDS011;12713;51.624;4.924;2024-02-26T09:11:32;24.85;;;16.15;;
24547;SDS011;12713;51.624;4.924;2024-02-26T09:13:58;28.55;;;16.80;;
24547;SDS011;12713;51.624;4.924;2024-02-26T09:16:24;23.48;;;15.48;;
24547;SDS011;12713;51.624;4.924;2024-02-26T09:18:50;24.80;;;15.73;;
24547;SDS011;12713;51.624;4.924;2024-02-26T09:21:16;25.40;;;15.95;;
24547;SDS011;12713;51.624;4.924;2024-02-26T09:23:48;27.00;;;16.73;;
24547;SDS011;12713;51.624;4.924;2024-02-26T09:26:14;26.65;;;15.98;;
24547;SDS011;12713;51.624;4.924;2024-02-26T09:28:40;31.45;;;16.98;;
24547;SDS011;12713;51.624;4.924;2024-02-26T09:31:06;31.02;;;17.70;;
24547;SDS011;12713;51.624;4.924;2024-02-26T09:33:32;32.53;;;17.73;;
24547;SDS011;12713;51.624;4.924;2024-02-26T09:35:58;34.47;;;18.95;;
24547;SDS011;12713;51.624;4.924;2024-02-26T09:38:25;33.25;;;19.02;;
24547;SDS011;12713;51.624;4.924;2024-02-26T09:40:51;34.72;;;18.70;;
24547;SDS011;12713;51.624;4.924;2024-02-26T09:43:18;35.88;;;18.02;;
24547;SDS011;12713;51.624;4.924;2024-02-26T09:45:47;34.22;;;18.00;;
24547;SDS011;12713;51.624;4.924;2024-02-26T09:48:15;34.35;;;18.13;;
24547;SDS011;12713;51.624;4.924;2024-02-26T09:50:43;38.28;;;20.90;;
24547;SDS011;12713;51.624;4.924;2024-02-26T09:53:12;40.00;;;20.75;;
24547;SDS011;12713;51.624;4.924;2024-02-26T09:55:39;39.67;;;19.88;;
24547;SDS011;12713;51.624;4.924;2024-02-26T09:58:05;32.15;;;19.17;;
24547;SDS011;12713;51.624;4.924;2024-02-26T10:00:32;37.80;;;19.15;;
24547;SDS011;12713;51.624;4.924;2024-02-26T10:03:02;37.13;;;20.20;;
24547;SDS011;12713;51.624;4.924;2024-02-26T10:05:29;40.08;;;19.77;;
24547;SDS011;12713;51.624;4.924;2024-02-26T10:07:56;38.75;;;20.58;;
24547;SDS011;12713;51.624;4.924;2024-02-26T10:10:22;37.10;;;19.42;;
24547;SDS011;12713;51.624;4.924;2024-02-26T10:12:49;39.03;;;20.95;;
24547;SDS011;12713;51.624;4.924;2024-02-26T10:15:15;35.30;;;19.10;;
24547;SDS011;12713;51.624;4.924;2024-02-26T10:17:41;41.38;;;21.15;;
24547;SDS011;12713;51.624;4.924;2024-02-26T10:20:14;39.47;;;20.48;;
24547;SDS011;12713;51.624;4.924;2024-02-26T10:22:41;33.03;;;19.15;;
24547;SDS011;12713;51.624;4.924;2024-02-26T10:25:07;36.60;;;19.33;;
24547;SDS011;12713;51.624;4.924;2024-02-26T10:27:34;36.17;;;20.05;;
24547;SDS011;12713;51.624;4.924;2024-02-26T10:30:04;34.42;;;18.85;;
24547;SDS011;12713;51.624;4.924;2024-02-26T10:32:30;31.27;;;19.15;;
24547;SDS011;12713;51.624;4.924;2024-02-26T10:34:56;33.50;;;18.33;;
24547;SDS011;12713;51.624;4.924;2024-02-26T10:37:22;29.70;;;17.15;;
24547;SDS011;12713;51.624;4.924;2024-02-26T10:39:50;30.42;;;18.00;;
24547;SDS011;12713;51.624;4.924;2024-02-26T10:42:16;30.33;;;17.40;;
24547;SDS011;12713;51.624;4.924;2024-02-26T10:44:44;28.17;;;17.00;;
24547;SDS011;12713;51.624;4.924;2024-02-26T10:47:10;29.38;;;17.60;;
24547;SDS011;12713;51.624;4.924;2024-02-26T10:49:36;28.85;;;16.20;;
24547;SDS011;12713;51.624;4.924;2024-02-26T10:52:03;30.13;;;15.68;;
24547;SDS011;12713;51.624;4.924;2024-02-26T10:54:30;32.35;;;17.02;;
24547;SDS011;12713;51.624;4.924;2024-02-26T10:56:57;28.17;;;16.15;;
24547;SDS011;12713;51.624;4.924;2024-02-26T10:59:24;25.35;;;16.23;;
24547;SDS011;12713;51.624;4.924;2024-02-26T11:01:51;27.23;;;16.20;;
24547;SDS011;12713;51.624;4.924;2024-02-26T11:04:17;26.30;;;16.58;;
24547;SDS011;12713;51.624;4.924;2024-02-26T11:06:44;31.17;;;17.58;;
24547;SDS011;12713;51.624;4.924;2024-02-26T11:09:12;27.95;;;16.05;;
24547;SDS011;12713;51.624;4.924;2024-02-26T11:11:38;23.45;;;15.52;;
24547;SDS011;12713;51.624;4.924;2024-02-26T11:14:05;23.13;;;14.80;;
24547;SDS011;12713;51.624;4.924;2024-02-26T11:16:33;23.38;;;14.57;;
24547;SDS011;12713;51.624;4.924;2024-02-26T11:19:00;26.95;;;15.98;;
24547;SDS011;12713;51.624;4.924;2024-02-26T11:21:27;21.88;;;14.65;;
24547;SDS011;12713;51.624;4.924;2024-02-26T11:24:08;22.58;;;14.32;;
24547;SDS011;12713;51.624;4.924;2024-02-26T11:26:36;22.38;;;15.15;;
24547;SDS011;12713;51.624;4.924;2024-02-26T11:29:04;23.05;;;15.00;;
24547;SDS011;12713;51.624;4.924;2024-02-26T11:31:31;24.85;;;14.18;;
24547;SDS011;12713;51.624;4.924;2024-02-26T11:33:58;24.13;;;15.52;;
24547;SDS011;12713;51.624;4.924;2024-02-26T11:36:24;21.42;;;13.80;;
24547;SDS011;12713;51.624;4.924;2024-02-26T11:38:50;20.17;;;13.80;;
24547;SDS011;12713;51.624;4.924;2024-02-26T11:41:18;22.08;;;14.30;;
24547;SDS011;12713;51.624;4.924;2024-02-26T11:43:50;22.48;;;14.20;;
24547;SDS011;12713;51.624;4.924;2024-02-26T11:46:33;24.75;;;14.63;;
24547;SDS011;12713;51.624;4.924;2024-02-26T11:49:03;24.52;;;14.20;;
24547;SDS011;12713;51.624;4.924;2024-02-26T11:51:52;22.17;;;13.55;;
24547;SDS011;12713;51.624;4.924;2024-02-26T11:57:19;22.77;;;14.23;;
24547;SDS011;12713;51.624;4.924;2024-02-26T11:59:46;20.90;;;14.20;;
24547;SDS011;12713;51.624;4.924;2024-02-26T12:02:36;21.55;;;13.82;;
24547;SDS011;12713;51.624;4.924;2024-02-26T12:04:59;22.27;;;14.20;;
24547;SDS011;12713;51.624;4.924;2024-02-26T12:07:25;26.15;;;14.32;;
24547;SDS011;12713;51.624;4.924;2024-02-26T12:09:51;22.33;;;13.70;;
24547;SDS011;12713;51.624;4.924;2024-02-26T12:12:17;24.35;;;15.38;;
24547;SDS011;12713;51.624;4.924;2024-02-26T12:14:51;23.83;;;13.75;;
24547;SDS011;12713;51.624;4.924;2024-02-26T12:17:21;21.20;;;13.30;;
24547;SDS011;12713;51.624;4.924;2024-02-26T12:19:47;24.35;;;14.77;;
24547;SDS011;12713;51.624;4.924;2024-02-26T12:22:13;21.58;;;15.15;;
24547;SDS011;12713;51.624;4.924;2024-02-26T12:24:40;20.35;;;13.32;;
24547;SDS011;12713;51.624;4.924;2024-02-26T12:27:06;21.60;;;14.43;;
24547;SDS011;12713;51.624;4.924;2024-02-26T12:29:32;20.40;;;13.95;;
24547;SDS011;12713;51.624;4.924;2024-02-26T12:31:59;20.58;;;13.65;;
24547;SDS011;12713;51.624;4.924;2024-02-26T12:34:25;20.20;;;14.27;;
24547;SDS011;12713;51.624;4.924;2024-02-26T12:36:51;20.30;;;13.70;;
24547;SDS011;12713;51.624;4.924;2024-02-26T12:39:18;23.73;;;14.07;;
24547;SDS011;12713;51.624;4.924;2024-02-26T12:41:45;20.17;;;14.05;;
24547;SDS011;12713;51.624;4.924;2024-02-26T12:44:17;20.77;;;14.63;;
24547;SDS011;12713;51.624;4.924;2024-02-26T12:46:43;25.15;;;15.27;;
24547;SDS011;12713;51.624;4.924;2024-02-26T12:49:14;21.33;;;14.70;;
24547;SDS011;12713;51.624;4.924;2024-02-26T12:51:40;20.48;;;14.75;;
24547;SDS011;12713;51.624;4.924;2024-02-26T12:54:06;25.85;;;16.85;;
24547;SDS011;12713;51.624;4.924;2024-02-26T12:56:33;23.02;;;14.85;;
24547;SDS011;12713;51.624;4.924;2024-02-26T12:58:59;23.20;;;15.32;;
24547;SDS011;12713;51.624;4.924;2024-02-26T13:01:25;23.27;;;14.63;;
24547;SDS011;12713;51.624;4.924;2024-02-26T13:03:52;23.65;;;15.95;;
24547;SDS011;12713;51.624;4.924;2024-02-26T13:06:18;24.27;;;15.60;;
24547;SDS011;12713;51.624;4.924;2024-02-26T13:08:46;21.35;;;14.88;;
24547;SDS011;12713;51.624;4.924;2024-02-26T13:11:13;22.30;;;15.65;;
24547;SDS011;12713;51.624;4.924;2024-02-26T13:13:39;23.73;;;15.45;;
24547;SDS011;12713;51.624;4.924;2024-02-26T13:16:05;23.60;;;16.23;;
24547;SDS011;12713;51.624;4.924;2024-02-26T13:18:33;22.60;;;15.80;;
24547;SDS011;12713;51.624;4.924;2024-02-26T13:23:35;26.15;;;14.48;;
24547;SDS011;12713;51.624;4.924;2024-02-26T13:26:01;24.92;;;14.57;;
24547;SDS011;12713;51.624;4.924;2024-02-26T13:28:27;20.55;;;13.15;;
24547;SDS011;12713;51.624;4.924;2024-02-26T13:30:53;22.00;;;14.15;;
24547;SDS011;12713;51.624;4.924;2024-02-26T13:33:23;19.23;;;12.68;;
24547;SDS011;12713;51.624;4.924;2024-02-26T13:35:50;20.20;;;12.45;;
24547;SDS011;12713;51.624;4.924;2024-02-26T13:38:16;18.98;;;12.27;;
24547;SDS011;12713;51.624;4.924;2024-02-26T13:40:42;19.75;;;13.10;;
24547;SDS011;12713;51.624;4.924;2024-02-26T13:43:08;23.50;;;13.48;;
24547;SDS011;12713;51.624;4.924;2024-02-26T13:45:35;19.98;;;13.07;;
24547;SDS011;12713;51.624;4.924;2024-02-26T13:48:02;21.45;;;12.85;;
24547;SDS011;12713;51.624;4.924;2024-02-26T13:50:28;16.05;;;10.68;;
24547;SDS011;12713;51.624;4.924;2024-02-26T13:52:54;18.60;;;11.70;;
24547;SDS011;12713;51.624;4.924;2024-02-26T13:55:30;17.38;;;11.50;;
24547;SDS011;12713;51.624;4.924;2024-02-26T13:57:57;18.40;;;11.77;;
24547;SDS011;12713;51.624;4.924;2024-02-26T14:00:24;16.73;;;11.68;;
24547;SDS011;12713;51.624;4.924;2024-02-26T14:02:50;20.90;;;11.07;;
24547;SDS011;12713;51.624;4.924;2024-02-26T14:05:16;17.15;;;11.05;;
24547;SDS011;12713;51.624;4.924;2024-02-26T14:07:42;17.90;;;10.75;;
24547;SDS011;12713;51.624;4.924;2024-02-26T14:10:09;17.75;;;10.80;;
24547;SDS011;12713;51.624;4.924;2024-02-26T14:12:37;18.13;;;10.98;;
24547;SDS011;12713;51.624;4.924;2024-02-26T14:15:04;14.82;;;9.77;;
24547;SDS011;12713;51.624;4.924;2024-02-26T14:17:30;15.48;;;10.00;;
24547;SDS011;12713;51.624;4.924;2024-02-26T14:19:56;14.82;;;10.13;;
24547;SDS011;12713;51.624;4.924;2024-02-26T14:22:22;16.95;;;10.98;;
24547;SDS011;12713;51.624;4.924;2024-02-26T14:24:48;16.02;;;9.93;;
24547;SDS011;12713;51.624;4.924;2024-02-26T14:27:15;18.38;;;10.18;;
24547;SDS011;12713;51.624;4.924;2024-02-26T14:29:42;13.48;;;9.57;;
24547;SDS011;12713;51.624;4.924;2024-02-26T14:32:11;14.25;;;9.57;;
24547;SDS011;12713;51.624;4.924;2024-02-26T14:34:38;15.13;;;10.30;;